Aviation Digital Data Service (ADDS)

Output produced by METARs form (0811 UTC 24 May 2018)
found at http://www.aviationweather.gov/adds/metars/
 
LJLJ 240800Z 07003KT 020V110 9999 FEW033 SCT050 BKN200 19/15 Q1019 NOSIG
TAF LJLJ 240800Z 2409/2509 11005KT 9999 FEW050 SCT130 
     TEMPO 2409/2509 SHRA SCT030TCU BKN070 
     PROB40 
     TEMPO 2411/2424 VRB15KT 5000 TSRA SCT030CB BKN050 
     BECMG 2419/2421 30003KT
       
LJMB 240800Z 05007KT 9999 FEW028 BKN120 21/16 Q1019
TAF LJMB 240800Z 2409/2509 01005KT 9999 FEW040 SCT130 
     TEMPO 2409/2509 SHRA SCT030TCU BKN070 
     PROB40 
     TEMPO 2409/2424 VRB15KT 5000 TSRA SCT030CB BKN050
       
LJPZ 240800Z 30003KT CAVOK 23/17 Q1016
TAF LJPZ 240800Z 2409/2418 30005KT CAVOK 
     PROB30 
     TEMPO 2409/2418 FEW050TCU BKN100